Etusivu
METAR-TAF:

METAR-TAF

Lentoasemat :

Linköpingin lentoasema

Linköping, Ruotsi

Leveyspiiri: 58-24N, Pituuspiiri: 015-41E, korkeus merenpinnasta: 52 m

Tämänhetkinen sää

Tämä raportti tehtiin 24 minuuttia sitten, kello 06.20 UTC
Tuuli 16 kn lännestä, vaihdellen lounaan ja lännen/luoteen välillä
Lämpötila 6°C
Kosteus 81%
Ilmanpaine 1011 hPa
Näkyvyys 10 km tai enemmän
Muutamia pilviä 1900 ft:n korkeudessa

METAR: ESSL 260620Z 27016KT 230V300 9999 FEW019 06/03 Q1011

Aika: 07:44 (06:44 UTC)

Sääennuste

Tämä raportti tehtiin 1 tunti ja 14 minuuttia sitten, kello 05.30 UTC
Ennuste voimassa 26. päivästä klo 06 UTC - 26. päivään klo 15 UTC
Tuuli 15 kn lännestä puuskistuen 27 kn:hen
Näkyvyys 10 km tai enemmän
Hajanaisia pilviä 1800 ft:n korkeudessa

TAF: ESSL 260530Z 2606/2615 27015G27KT 9999 SCT018

Säähavainnot ja -ennusteet yli 4000 lentoasemalta (METAR- ja TAF-raportit).

Käytössä olevat sääasemat on merkitty karttaan keltaisilla ja punaisilla pisteillä.

Aseta hiiri pisteen päälle nähdäksesi sääaseman nimen.

Klikkaa sitten nähdäksesi säähavainnot ja -ennusteet.

Kartan vaihtaminen: klikkaa mustalla rastilla varustettuja vihreitä pisteitä, niin voit zoomata sisään; viivalla varustettua vihreää pistettä, niin voit zoomata ulos tai vihreitä nuolia, niin pääset viereisille kartoille.


METAR-TAF: